createdAt,value
2023-05-20T00:00:57.240Z,102389.03
2023-05-20T00:03:26.778Z,102391.66
2023-05-20T00:05:55.016Z,102389.03
2023-05-20T00:08:23.248Z,102391.66
2023-05-20T00:10:51.334Z,102387.28
2023-05-20T00:13:19.333Z,102392.59
2023-05-20T00:15:47.429Z,102391.72
2023-05-20T00:18:15.431Z,102395.25
2023-05-20T00:20:44.898Z,102397.03
2023-05-20T00:23:12.921Z,102397.91
2023-05-20T00:25:40.985Z,102393.50
2023-05-20T00:28:08.992Z,102392.59
2023-05-20T00:30:37.002Z,102396.16
2023-05-20T00:33:05.248Z,102389.94
2023-05-20T00:35:33.537Z,102380.09
2023-05-20T00:38:03.098Z,102388.16
2023-05-20T00:40:31.146Z,102380.13
2023-05-20T00:42:59.182Z,102381.94
2023-05-20T00:45:27.400Z,102386.31
2023-05-20T00:47:59.576Z,102383.75
2023-05-20T00:50:28.510Z,102377.50
2023-05-20T00:52:56.587Z,102378.44
2023-05-20T00:55:26.838Z,102381.06
2023-05-20T00:57:55.416Z,102383.75
2023-05-20T01:00:23.747Z,102377.50
2023-05-20T01:02:51.955Z,102374.91
2023-05-20T01:05:20.202Z,102372.19
2023-05-20T01:07:48.288Z,102372.22
2023-05-20T01:10:16.334Z,102375.75
2023-05-20T01:12:49.665Z,102373.97
2023-05-20T01:15:19.371Z,102366.00
2023-05-20T01:17:49.945Z,102371.34
2023-05-20T01:20:20.725Z,102372.22
2023-05-20T01:22:50.887Z,102371.38
2023-05-20T01:25:18.937Z,102363.38
2023-05-20T01:27:47.087Z,102373.16
2023-05-20T01:30:15.670Z,102370.50
2023-05-20T01:32:49.472Z,102369.63
2023-05-20T01:35:18.989Z,102351.00
2023-05-20T01:37:47.833Z,102371.41
2023-05-20T01:40:18.117Z,102369.59
2023-05-20T01:42:52.675Z,102374.94
2023-05-20T01:45:20.993Z,102373.19
2023-05-20T01:47:49.933Z,102374.06
2023-05-20T01:50:18.312Z,102369.63
2023-05-20T01:52:46.382Z,102375.84
2023-05-20T01:55:14.497Z,102368.75
2023-05-20T01:57:44.001Z,102369.63
2023-05-20T02:00:12.789Z,102371.41
2023-05-20T02:02:41.012Z,102364.34
2023-05-20T02:05:10.187Z,102351.84
2023-05-20T02:07:38.265Z,102371.44
2023-05-20T02:10:07.375Z,102369.63
2023-05-20T02:12:35.382Z,102364.28
2023-05-20T02:15:05.529Z,102367.88
2023-05-20T02:17:33.568Z,102358.09
2023-05-20T02:20:01.794Z,102357.19
2023-05-20T02:22:29.762Z,102358.09
2023-05-20T02:24:57.803Z,102358.09
2023-05-20T02:27:25.881Z,102355.44
2023-05-20T02:29:54.153Z,102355.44
2023-05-20T02:32:27.868Z,102345.66
2023-05-20T02:34:56.046Z,102347.44
2023-05-20T02:37:24.094Z,102344.75
2023-05-20T02:39:52.088Z,102346.56
2023-05-20T02:42:20.141Z,102344.78
2023-05-20T02:44:48.194Z,102343.88
2023-05-20T02:47:16.320Z,102345.66
2023-05-20T02:49:46.720Z,102355.41
2023-05-20T02:52:16.172Z,102335.00
2023-05-20T02:54:44.254Z,102355.44
2023-05-20T02:57:12.607Z,102349.19
2023-05-20T02:59:40.646Z,102345.66
2023-05-20T03:02:09.023Z,102361.63
2023-05-20T03:04:38.821Z,102366.09
2023-05-20T03:07:09.040Z,102360.75
2023-05-20T03:09:37.413Z,102369.63
2023-05-20T03:12:05.691Z,102361.63
2023-05-20T03:14:33.745Z,102367.84
2023-05-20T03:17:01.762Z,102357.22
2023-05-20T03:19:29.913Z,102363.41
2023-05-20T03:21:58.318Z,102370.53
2023-05-20T03:24:27.648Z,102368.75
2023-05-20T03:26:56.131Z,102373.19
2023-05-20T03:29:24.610Z,102366.94
2023-05-20T03:31:52.634Z,102367.84
2023-05-20T03:34:20.917Z,102359.84
2023-05-20T03:36:49.139Z,102362.53
2023-05-20T03:39:17.120Z,102348.31
2023-05-20T03:41:46.509Z,102354.53
2023-05-20T03:44:14.623Z,102356.31
2023-05-20T03:46:42.703Z,102356.31
2023-05-20T03:49:10.748Z,102358.97
2023-05-20T03:51:38.748Z,102366.94
2023-05-20T03:54:07.063Z,102366.06
2023-05-20T03:56:36.405Z,102366.06
2023-05-20T03:59:05.838Z,102361.66
2023-05-20T04:01:33.947Z,102365.19
2023-05-20T04:04:02.089Z,102361.63
2023-05-20T04:06:30.174Z,102357.22
2023-05-20T04:08:58.351Z,102360.78
2023-05-20T04:11:26.352Z,102359.88
2023-05-20T04:13:55.086Z,102363.44
2023-05-20T04:16:24.453Z,102365.22
2023-05-20T04:18:52.520Z,102359.00
2023-05-20T04:21:20.585Z,102364.31
2023-05-20T04:23:48.793Z,102366.09
2023-05-20T04:26:16.936Z,102358.06
2023-05-20T04:28:48.684Z,102358.06
2023-05-20T04:31:17.243Z,102361.63
2023-05-20T04:33:46.692Z,102363.38
2023-05-20T04:36:16.217Z,102361.63
2023-05-20T04:38:44.776Z,102350.94
2023-05-20T04:41:12.894Z,102355.41
2023-05-20T04:43:40.955Z,102351.81
2023-05-20T04:46:09.682Z,102353.59
2023-05-20T04:48:37.940Z,102350.06
2023-05-20T04:51:08.721Z,102352.69
2023-05-20T04:53:37.077Z,102356.25
2023-05-20T04:56:05.716Z,102357.13
2023-05-20T04:58:33.769Z,102347.31
2023-05-20T05:01:02.682Z,102347.31
2023-05-20T05:03:31.422Z,102347.34
2023-05-20T05:06:00.044Z,102352.66
2023-05-20T05:08:29.470Z,102354.38
2023-05-20T05:10:57.632Z,102348.16
2023-05-20T05:13:25.724Z,102349.91
2023-05-20T05:16:00.490Z,102351.69
2023-05-20T05:18:28.654Z,102349.91
2023-05-20T05:21:01.734Z,102357.00
2023-05-20T05:23:31.536Z,102356.06
2023-05-20T05:25:59.846Z,102355.16
2023-05-20T05:28:28.013Z,102353.34
2023-05-20T05:30:57.018Z,102359.53
2023-05-20T05:33:25.318Z,102358.56
2023-05-20T05:35:53.372Z,102361.19
2023-05-20T05:38:21.471Z,102354.06
2023-05-20T05:40:50.867Z,102358.47
2023-05-20T05:43:18.932Z,102355.75
2023-05-20T05:45:46.997Z,102353.94
2023-05-20T05:48:15.073Z,102353.88
2023-05-20T05:50:46.034Z,102352.03
2023-05-20T05:53:14.257Z,102353.72
2023-05-20T05:55:42.274Z,102354.53
2023-05-20T05:58:12.372Z,102355.34
2023-05-20T06:00:40.558Z,102349.94
2023-05-20T06:03:08.663Z,102357.03
2023-05-20T06:05:36.916Z,102361.41
2023-05-20T06:08:05.718Z,102360.47
2023-05-20T06:10:33.789Z,102345.25
2023-05-20T06:13:01.855Z,102354.84
2023-05-20T06:15:31.357Z,102361.88
2023-05-20T06:17:59.493Z,102349.31
2023-05-20T06:20:27.674Z,102362.63
2023-05-20T06:22:55.709Z,102354.59
2023-05-20T06:25:23.904Z,102351.06
2023-05-20T06:27:52.186Z,102357.25
2023-05-20T06:30:20.330Z,102353.59
2023-05-20T06:32:49.777Z,102350.94
2023-05-20T06:35:17.951Z,102347.41
2023-05-20T06:37:46.165Z,102332.09
2023-05-20T06:40:14.502Z,102329.28
2023-05-20T06:42:42.638Z,102330.13
2023-05-20T06:45:11.581Z,102329.22
2023-05-20T06:47:39.598Z,102328.41
2023-05-20T06:50:09.834Z,102330.13
2023-05-20T06:52:38.001Z,102338.16
2023-05-20T06:55:06.858Z,102325.56
2023-05-20T06:57:34.951Z,102322.84
2023-05-20T07:00:03.786Z,102325.47
2023-05-20T07:02:31.867Z,102334.22
2023-05-20T07:05:00.170Z,102324.28
2023-05-20T07:07:29.620Z,102313.28
2023-05-20T07:09:58.233Z,102319.28
2023-05-20T07:12:26.326Z,102314.78
2023-05-20T07:14:54.398Z,102315.50
2023-05-20T07:17:22.552Z,102316.31
2023-05-20T07:19:50.646Z,102331.31
2023-05-20T07:22:18.767Z,102321.50
2023-05-20T07:24:48.154Z,102323.13
2023-05-20T07:27:16.326Z,102327.59
2023-05-20T07:29:44.479Z,102333.84
2023-05-20T07:32:12.705Z,102321.09
2023-05-20T07:34:40.738Z,102321.03
2023-05-20T07:37:10.116Z,102316.53
2023-05-20T07:39:38.249Z,102318.25
2023-05-20T07:42:07.864Z,102316.34
2023-05-20T07:44:36.156Z,102317.25
2023-05-20T07:47:04.385Z,102319.69
2023-05-20T07:49:32.361Z,102317.91
2023-05-20T07:52:02.722Z,102311.41
2023-05-20T07:54:31.197Z,102317.75
2023-05-20T07:57:00.473Z,102307.13
2023-05-20T07:59:29.820Z,102317.03
2023-05-20T08:01:57.869Z,102314.41
2023-05-20T08:04:27.766Z,102312.50
2023-05-20T08:06:56.649Z,102305.00
2023-05-20T08:09:24.696Z,102323.75
2023-05-20T08:11:52.737Z,102310.06
2023-05-20T08:14:20.942Z,102312.59
2023-05-20T08:16:52.962Z,102312.41
2023-05-20T08:19:22.630Z,102307.03
2023-05-20T08:21:50.649Z,102307.28
2023-05-20T08:24:18.688Z,102308.75
2023-05-20T08:26:46.813Z,102316.69
2023-05-20T08:29:14.980Z,102308.56
2023-05-20T08:31:43.084Z,102302.31
2023-05-20T08:34:12.484Z,102300.38
2023-05-20T08:36:41.001Z,102293.91
2023-05-20T08:39:09.252Z,102290.16
2023-05-20T08:41:39.020Z,102288.84
2023-05-20T08:44:09.177Z,102289.50
2023-05-20T08:46:38.084Z,102280.31
2023-05-20T08:49:06.510Z,102273.59
2023-05-20T08:51:37.535Z,102278.44
2023-05-20T08:54:05.590Z,102274.47
2023-05-20T08:56:34.157Z,102272.84
2023-05-20T08:59:02.286Z,102274.47
2023-05-20T09:01:30.383Z,102273.75
2023-05-20T09:03:58.502Z,102271.38
2023-05-20T09:06:26.575Z,102265.47
2023-05-20T09:08:55.980Z,102269.63
2023-05-20T09:11:24.080Z,102267.03
2023-05-20T09:13:52.273Z,102275.09
2023-05-20T09:16:20.399Z,102269.22
2023-05-20T09:18:48.546Z,102258.47
2023-05-20T09:21:16.739Z,102260.56
2023-05-20T09:23:48.526Z,102263.31
2023-05-20T09:26:19.150Z,102253.84
2023-05-20T09:28:47.595Z,102252.22
2023-05-20T09:31:16.104Z,102246.50
2023-05-20T09:33:45.162Z,102240.13
2023-05-20T09:36:15.971Z,102243.16
2023-05-20T09:38:47.631Z,102233.88
2023-05-20T09:41:17.159Z,102230.31
2023-05-20T09:43:46.925Z,102236.19
2023-05-20T09:46:15.677Z,102233.47
2023-05-20T09:48:44.843Z,102235.25
2023-05-20T09:51:14.520Z,102245.59
2023-05-20T09:53:43.125Z,102231.38
2023-05-20T09:56:11.551Z,102243.84
2023-05-20T09:58:43.266Z,102241.50
2023-05-20T10:01:11.475Z,102240.97
2023-05-20T10:03:41.258Z,102237.09
2023-05-20T10:06:37.004Z,102235.47
2023-05-20T10:09:19.294Z,102229.47
2023-05-20T10:11:55.599Z,102232.00
2023-05-20T10:14:35.269Z,102224.97
2023-05-20T10:17:12.176Z,102237.19
2023-05-20T10:19:40.448Z,102230.78
2023-05-20T10:22:10.210Z,102227.63
2023-05-20T10:24:41.037Z,102227.53
2023-05-20T10:27:11.673Z,102233.88
2023-05-20T10:29:51.581Z,102229.34
2023-05-20T10:32:27.309Z,102226.00
2023-05-20T10:35:00.831Z,102228.25
2023-05-20T10:37:30.737Z,102228.25
2023-05-20T10:40:08.280Z,102212.03
2023-05-20T10:42:36.463Z,102211.19
2023-05-20T10:45:07.215Z,102198.66
2023-05-20T10:47:35.866Z,102204.47
2023-05-20T10:50:05.930Z,102193.34
2023-05-20T10:52:35.675Z,102201.25
2023-05-20T10:55:04.987Z,102194.16
2023-05-20T10:57:33.236Z,102195.91
2023-05-20T11:00:02.039Z,102193.00
2023-05-20T11:02:31.817Z,102194.16
2023-05-20T11:05:00.135Z,102193.38
2023-05-20T11:07:29.152Z,102189.97
2023-05-20T11:09:57.377Z,102186.91
2023-05-20T11:12:26.887Z,102186.41
2023-05-20T11:14:55.604Z,102183.34
2023-05-20T11:17:23.710Z,102178.31
2023-05-20T11:19:53.115Z,102173.53
2023-05-20T11:22:21.170Z,102181.72
2023-05-20T11:24:49.231Z,102178.84
2023-05-20T11:27:17.253Z,102176.09
2023-05-20T11:29:45.526Z,102183.38
2023-05-20T11:32:13.686Z,102182.97
2023-05-20T11:34:42.679Z,102178.13
2023-05-20T11:37:12.447Z,102172.59
2023-05-20T11:39:40.931Z,102176.50
2023-05-20T11:42:09.034Z,102170.81
2023-05-20T11:44:37.436Z,102167.03
2023-05-20T11:47:05.904Z,102168.44
2023-05-20T11:49:41.009Z,102163.50
2023-05-20T11:52:13.387Z,102167.22
2023-05-20T11:54:41.419Z,102166.84
2023-05-20T11:57:09.514Z,102164.81
2023-05-20T11:59:37.656Z,102168.09
2023-05-20T12:02:05.773Z,102159.66
2023-05-20T12:04:33.961Z,102163.28
2023-05-20T12:07:04.094Z,102164.22
2023-05-20T12:09:33.508Z,102162.91
2023-05-20T12:12:02.654Z,102162.91
2023-05-20T12:14:30.786Z,102154.97
2023-05-20T12:16:59.835Z,102159.88
2023-05-20T12:19:28.081Z,102162.19
2023-05-20T12:21:56.339Z,102154.97
2023-05-20T12:24:24.373Z,102162.03
2023-05-20T12:26:53.823Z,102155.59
2023-05-20T12:29:21.877Z,102161.56
2023-05-20T12:31:50.006Z,102164.56
2023-05-20T12:34:18.041Z,102151.78
2023-05-20T12:36:46.383Z,102150.00
2023-05-20T12:39:17.737Z,102147.31
2023-05-20T12:41:46.041Z,102145.13
2023-05-20T12:44:15.587Z,102139.69
2023-05-20T12:46:43.695Z,102141.09
2023-05-20T12:49:11.844Z,102134.72
2023-05-20T12:51:39.894Z,102138.81
2023-05-20T12:54:08.012Z,102142.53
2023-05-20T12:56:36.049Z,102138.59
2023-05-20T12:59:04.100Z,102148.06
2023-05-20T13:01:33.752Z,102140.56
2023-05-20T13:04:01.787Z,102139.69
2023-05-20T13:06:29.850Z,102135.44
2023-05-20T13:08:57.897Z,102133.75
2023-05-20T13:11:25.959Z,102133.81
2023-05-20T13:13:56.629Z,102133.72
2023-05-20T13:16:24.806Z,102131.22
2023-05-20T13:18:54.384Z,102126.19
2023-05-20T13:21:22.450Z,102125.06
2023-05-20T13:23:50.517Z,102119.88
2023-05-20T13:26:18.828Z,102109.41
2023-05-20T13:28:46.984Z,102109.78
2023-05-20T13:31:15.126Z,102099.00
2023-05-20T13:33:43.479Z,102100.69
2023-05-20T13:36:12.895Z,102081.13
2023-05-20T13:38:41.193Z,102090.09
2023-05-20T13:41:09.339Z,102088.81
2023-05-20T13:43:37.400Z,102093.31
2023-05-20T13:46:05.772Z,102094.38
2023-05-20T13:48:34.203Z,102087.88
2023-05-20T13:51:02.400Z,102091.59
2023-05-20T13:53:31.860Z,102080.81
2023-05-20T13:56:00.105Z,102082.78
2023-05-20T13:58:28.135Z,102069.59
2023-05-20T14:00:56.247Z,102081.34
2023-05-20T14:03:24.374Z,102069.53
2023-05-20T14:05:52.951Z,102067.56
2023-05-20T14:08:21.111Z,102058.47
2023-05-20T14:10:54.706Z,102072.41
2023-05-20T14:13:23.267Z,102068.56
2023-05-20T14:15:51.465Z,102055.00
2023-05-20T14:18:20.018Z,102061.59
2023-05-20T14:20:48.440Z,102049.66
2023-05-20T14:23:16.474Z,102052.81
2023-05-20T14:25:44.544Z,102051.53
2023-05-20T14:28:13.912Z,102044.88
2023-05-20T14:30:41.954Z,102046.00
2023-05-20T14:33:10.080Z,102040.38
2023-05-20T14:35:38.147Z,102037.66
2023-05-20T14:38:06.773Z,102026.38
2023-05-20T14:40:35.020Z,102034.06
2023-05-20T14:43:03.176Z,102035.22
2023-05-20T14:45:32.681Z,102021.06
2023-05-20T14:48:00.738Z,102028.41
2023-05-20T14:50:28.808Z,102024.28
2023-05-20T14:52:56.928Z,102019.28
2023-05-20T14:55:24.989Z,102026.22
2023-05-20T14:57:53.082Z,102024.00
2023-05-20T15:00:21.361Z,102017.81
2023-05-20T15:02:50.978Z,102021.47
2023-05-20T15:05:19.099Z,102004.41
2023-05-20T15:07:47.172Z,102004.75
2023-05-20T15:10:15.295Z,101991.13
2023-05-20T15:12:43.514Z,102001.97
2023-05-20T15:15:12.295Z,101993.56
2023-05-20T15:17:40.539Z,101997.50
2023-05-20T15:20:11.299Z,101997.97
2023-05-20T15:22:39.430Z,101993.72
2023-05-20T15:25:07.995Z,101988.97
2023-05-20T15:27:36.132Z,101990.75
2023-05-20T15:30:04.381Z,101992.81
2023-05-20T15:32:32.581Z,101984.75
2023-05-20T15:35:02.523Z,101998.59
2023-05-20T15:37:32.254Z,101988.19
2023-05-20T15:40:00.280Z,101979.84
2023-05-20T15:42:28.724Z,101989.38
2023-05-20T15:44:56.991Z,101989.91
2023-05-20T15:47:25.069Z,101977.78
2023-05-20T15:49:54.451Z,101980.22
2023-05-20T15:52:22.583Z,101974.25
2023-05-20T15:54:52.027Z,101967.97
2023-05-20T15:57:20.129Z,101960.63
2023-05-20T15:59:48.188Z,101958.50
2023-05-20T16:02:16.483Z,101967.84
2023-05-20T16:04:44.582Z,101952.38
2023-05-20T16:07:12.657Z,101949.28
2023-05-20T16:09:40.949Z,101953.00
2023-05-20T16:12:12.276Z,101949.47
2023-05-20T16:14:40.567Z,101957.56
2023-05-20T16:17:08.573Z,101955.03
2023-05-20T16:19:36.767Z,101945.91
2023-05-20T16:22:05.155Z,101937.28
2023-05-20T16:24:33.289Z,101941.38
2023-05-20T16:27:01.321Z,101939.97
2023-05-20T16:29:30.728Z,101947.41
2023-05-20T16:31:58.958Z,101933.78
2023-05-20T16:34:27.739Z,101931.09
2023-05-20T16:36:56.035Z,101932.91
2023-05-20T16:39:24.077Z,101935.47
2023-05-20T16:41:52.190Z,101935.44
2023-05-20T16:44:20.200Z,101943.16
2023-05-20T16:46:50.819Z,101940.34
2023-05-20T16:49:20.028Z,101937.28
2023-05-20T16:51:48.153Z,101919.22
2023-05-20T16:54:16.250Z,101921.28
2023-05-20T16:56:44.261Z,101924.19
2023-05-20T16:59:14.703Z,101934.88
2023-05-20T17:01:42.846Z,101932.00
2023-05-20T17:04:12.397Z,101934.81
2023-05-20T17:06:40.564Z,101934.38
2023-05-20T17:09:08.791Z,101936.63
2023-05-20T17:11:36.822Z,101924.84
2023-05-20T17:14:05.201Z,101940.72
2023-05-20T17:16:33.465Z,101940.88
2023-05-20T17:19:01.577Z,101934.41
2023-05-20T17:21:31.168Z,101928.41
2023-05-20T17:23:59.207Z,101928.03
2023-05-20T17:26:27.307Z,101935.72
2023-05-20T17:28:55.501Z,101937.34
2023-05-20T17:31:23.962Z,101925.13
2023-05-20T17:33:52.056Z,101934.06
2023-05-20T17:36:22.055Z,101927.00
2023-05-20T17:38:51.938Z,101924.31
2023-05-20T17:41:19.944Z,101923.56
2023-05-20T17:43:47.960Z,101921.75
2023-05-20T17:46:16.330Z,101925.72
2023-05-20T17:48:45.666Z,101921.91
2023-05-20T17:51:13.816Z,101919.38
2023-05-20T17:53:41.892Z,101928.47
2023-05-20T17:56:11.351Z,101929.63
2023-05-20T17:58:39.362Z,101925.19
2023-05-20T18:01:09.331Z,101923.28
2023-05-20T18:03:37.467Z,101923.03
2023-05-20T18:06:06.240Z,101914.97
2023-05-20T18:08:34.285Z,101923.91
2023-05-20T18:11:02.299Z,101916.63
2023-05-20T18:13:31.731Z,101919.50
2023-05-20T18:15:59.836Z,101913.41
2023-05-20T18:18:27.931Z,101915.66
2023-05-20T18:20:55.941Z,101917.13
2023-05-20T18:23:24.077Z,101917.06
2023-05-20T18:25:52.092Z,101919.41
2023-05-20T18:28:20.213Z,101918.69
2023-05-20T18:30:49.678Z,101917.16
2023-05-20T18:33:17.809Z,101910.75
2023-05-20T18:35:46.023Z,101906.28
2023-05-20T18:38:14.100Z,101901.88
2023-05-20T18:40:42.353Z,101901.16
2023-05-20T18:43:10.502Z,101913.22
2023-05-20T18:45:38.567Z,101911.53
2023-05-20T18:48:08.708Z,101918.44
2023-05-20T18:50:37.018Z,101916.19
2023-05-20T18:53:05.238Z,101905.00
2023-05-20T18:55:33.532Z,101913.03
2023-05-20T18:58:01.520Z,101908.75
2023-05-20T19:00:29.664Z,101921.56
2023-05-20T19:02:58.138Z,101920.19
2023-05-20T19:05:27.593Z,101920.25
2023-05-20T19:07:55.836Z,101926.56
2023-05-20T19:10:24.042Z,101929.53
2023-05-20T19:12:52.061Z,101933.25
2023-05-20T19:15:20.222Z,101932.69
2023-05-20T19:17:48.349Z,101941.09
2023-05-20T19:20:16.553Z,101931.41
2023-05-20T19:22:46.223Z,101926.25
2023-05-20T19:25:14.284Z,101928.94
2023-05-20T19:27:42.391Z,101900.84
2023-05-20T19:30:11.359Z,101927.38
2023-05-20T19:32:39.747Z,101930.16
2023-05-20T19:35:08.647Z,101927.59
2023-05-20T19:37:36.701Z,101924.00
2023-05-20T19:40:07.921Z,101926.09
2023-05-20T19:42:36.126Z,101928.66
2023-05-20T19:45:04.488Z,101928.94
2023-05-20T19:47:32.617Z,101933.19
2023-05-20T19:50:01.509Z,101932.66
2023-05-20T19:52:29.706Z,101932.56
2023-05-20T19:54:57.939Z,101942.63
2023-05-20T19:57:27.514Z,101939.88
2023-05-20T19:59:55.908Z,101941.59
2023-05-20T20:02:24.003Z,101935.34
2023-05-20T20:04:52.537Z,101940.03
2023-05-20T20:07:20.793Z,101932.78
2023-05-20T20:09:51.614Z,101937.25
2023-05-20T20:12:19.908Z,101940.91
2023-05-20T20:14:49.308Z,101940.97
2023-05-20T20:17:17.689Z,101940.88
2023-05-20T20:19:48.083Z,101933.72
2023-05-20T20:22:17.821Z,101940.16
2023-05-20T20:24:45.983Z,101923.34
2023-05-20T20:27:14.333Z,101933.25
2023-05-20T20:29:42.780Z,101927.13
2023-05-20T20:32:12.453Z,101943.94
2023-05-20T20:34:41.457Z,101942.25
2023-05-20T20:37:09.565Z,101932.38
2023-05-20T20:39:37.656Z,101935.03
2023-05-20T20:42:06.636Z,101934.06
2023-05-20T20:44:34.675Z,101938.69
2023-05-20T20:47:04.096Z,101936.94
2023-05-20T20:49:34.220Z,101938.78
2023-05-20T20:52:02.549Z,101938.69
2023-05-20T20:54:32.785Z,101948.63
2023-05-20T20:57:02.756Z,101940.59
2023-05-20T20:59:30.862Z,101929.84
2023-05-20T21:01:58.875Z,101936.22
2023-05-20T21:04:28.004Z,101926.31
2023-05-20T21:07:01.814Z,101920.06
2023-05-20T21:09:30.263Z,101925.56
2023-05-20T21:12:00.388Z,101919.34
2023-05-20T21:14:28.510Z,101924.78
2023-05-20T21:16:56.593Z,101927.47
2023-05-20T21:19:24.739Z,101919.44
2023-05-20T21:21:52.799Z,101921.16
2023-05-20T21:24:22.238Z,101922.25
2023-05-20T21:26:50.241Z,101920.50
2023-05-20T21:29:18.272Z,101922.53
2023-05-20T21:31:46.365Z,101920.63
2023-05-20T21:34:14.366Z,101914.19
2023-05-20T21:36:42.397Z,101912.47
2023-05-20T21:39:10.414Z,101908.88
2023-05-20T21:41:40.324Z,101912.63
2023-05-20T21:44:08.400Z,101900.16
2023-05-20T21:46:36.492Z,101903.00
2023-05-20T21:49:04.578Z,101902.09
2023-05-20T21:51:32.626Z,101896.59
2023-05-20T21:54:00.726Z,101894.94
2023-05-20T21:56:28.825Z,101890.28
2023-05-20T21:58:58.220Z,101886.06
2023-05-20T22:01:26.296Z,101894.00
2023-05-20T22:03:56.059Z,101887.81
2023-05-20T22:06:25.752Z,101885.09
2023-05-20T22:08:53.932Z,101879.72
2023-05-20T22:11:21.970Z,101882.34
2023-05-20T22:13:50.006Z,101877.00
2023-05-20T22:16:19.469Z,101876.38
2023-05-20T22:18:49.610Z,101885.97
2023-05-20T22:21:17.677Z,101885.84
2023-05-20T22:23:45.722Z,101876.41
2023-05-20T22:26:13.781Z,101880.63
2023-05-20T22:28:41.822Z,101877.16
2023-05-20T22:31:09.898Z,101879.72
2023-05-20T22:33:41.312Z,101873.59
2023-05-20T22:36:09.861Z,101864.72
2023-05-20T22:38:37.948Z,101862.88
2023-05-20T22:41:06.003Z,101859.47
2023-05-20T22:43:34.019Z,101861.22
2023-05-20T22:46:02.240Z,101852.34
2023-05-20T22:48:30.494Z,101851.50
2023-05-20T22:51:01.252Z,101850.47
2023-05-20T22:53:29.275Z,101843.34
2023-05-20T22:55:59.863Z,101839.78
2023-05-20T22:58:29.696Z,101839.03
2023-05-20T23:00:59.529Z,101837.41
2023-05-20T23:03:27.586Z,101831.91
2023-05-20T23:05:55.649Z,101831.13
2023-05-20T23:08:25.116Z,101828.34
2023-05-20T23:10:53.219Z,101826.88
2023-05-20T23:13:21.383Z,101816.91
2023-05-20T23:15:50.097Z,101825.84
2023-05-20T23:18:18.970Z,101814.22
2023-05-20T23:20:47.700Z,101813.28
2023-05-20T23:23:16.067Z,101808.00
2023-05-20T23:25:46.079Z,101817.06
2023-05-20T23:28:14.148Z,101807.16
2023-05-20T23:30:42.140Z,101814.22
2023-05-20T23:33:10.292Z,101808.91
2023-05-20T23:35:38.689Z,101808.94
2023-05-20T23:38:07.646Z,101808.19
2023-05-20T23:40:35.651Z,101804.56
2023-05-20T23:43:05.047Z,101800.00
2023-05-20T23:45:33.116Z,101798.22
2023-05-20T23:48:03.434Z,101797.34
2023-05-20T23:50:32.672Z,101796.50
2023-05-20T23:53:00.881Z,101793.06
2023-05-20T23:55:29.316Z,101795.94
2023-05-20T23:57:57.405Z,101782.50
